WAGO2: Chouteau Lock And Dam (L&D 17)

Data processed at Fri Dec 08 2017 23:34


All information presented herein is the property of the government of the United States of America and may be revised or deleted at any time without prior notice.
Dissemination of this information without the expressed written consent of the Public Affairs Office, Tulsa District U.S. Army Corps of Engineers is strictly prohibited.
These data are gathered electronically and, as presented, have not undergone any form of quality control. These data are not guaranteed to be valid or correct.
Go to home page.
Go to station list.

Upstream stations:

Downstream station:
Previous Day
Next Day
Current Day
    
SHEF ID:       WAGO2     Chouteau Lock And Dam (L&D 17)
STATION TYPE:  NAVIGATION LOCK
Normal Pool:  Bottom =   511.50, Top =   511.50

               PRECIP ELEVATION   STORAGE   TW-ELEV    INFLOW   RELEASE  AIR-TEMP  WIND-DIRWIND-SPEED REL-HUMID SOLAR-RAD   VOLTAGE  BAT-LOAD
                   in        ft     ac-ft        ft       cfs       cfs         F       deg       mph         %      W/m2      volt      volt
              Ccp-Rev   Ccp-Rev   Ccp-Rev   Ccp-Rev  Regi-Rev  Regi-Rev   Ccp-Rev   Ccp-Rev   Ccp-Rev   Ccp-Rev   Ccp-Rev   Ccp-Rev   Ccp-Rev
(US/Central)
12/06 00:00      0.00    511.89     24590    489.75         0         0     31.71    152.40      1.40     61.42      0.00     13.52     13.04
12/06 01:00      0.00    511.83     24454    489.89         0         0     31.08    160.30      1.90     59.07      0.00     13.59     13.03
12/06 02:00      0.00    511.82     24431    489.89         0         0     30.58    161.20      1.50     59.32      0.00     13.56     13.06
12/06 03:00      0.00    511.85     24499    489.74         0         0     30.45    161.10      2.60     57.44      0.00     13.57     13.05
12/06 04:00      0.00    511.84     24477    489.68         0         0     29.97    161.80      2.90     57.60      0.00     13.56     13.09
12/06 05:00      0.00    511.83     24454    489.77         0         0     29.52    157.30      3.00     58.79      0.00     13.51     13.05
12/06 06:00      0.00    511.84     24477    489.78         0         0     29.71    155.20      1.70     61.55      0.00     13.59     13.04
12/06 07:00      0.00    511.89     24590    489.96         1         0     27.55      2.40      0.40     71.61      0.00     13.56     13.05
12/06 08:00      0.00    511.82     24431    489.96         1         0     26.92    164.90      0.30     77.54      7.00     13.58     13.05
12/06 09:00      0.00    511.85     24499    489.95         3         0     31.03    203.20      0.90     68.19    147.60     13.54     13.05
12/06 10:00      0.00    511.83     24454    489.53         3         0     36.70    294.60      3.50     51.64    313.40     13.59     13.05
12/06 11:00      0.00    511.84     24477    489.67       219         0     40.39    331.40      4.50     45.96    450.20     13.59     13.04
12/06 12:00      0.00    511.83     24454    489.59       219         0     43.83    330.00      4.20     43.86    536.80     13.54     13.05
12/06 13:00      0.00    511.87     24545    489.76       645         0     48.13    318.80      4.20     38.93    567.10     13.58     13.04
12/06 14:00      0.00    511.88     24568    489.93       717         0     50.74    326.50      7.20     35.44    529.70     13.59     13.06
12/06 15:00      0.00    511.87     24545    489.68       766         0     52.38    332.80      8.90     31.71    431.60     13.55     13.05
12/06 16:00      0.00    511.69     24136    489.63       549         0     53.10    315.80      7.60     30.94    283.40     13.55     13.05
12/06 17:00      0.00    512.09     25073    489.86       549         0     52.29    320.40      6.00     31.74     95.80     13.60     13.06
12/06 18:00      0.00    512.10     25099    489.78       123         0     48.69    324.80      4.00     36.76      0.00     13.55     13.03
12/06 19:00      0.00    511.97     24772    489.97        49         0     45.64    329.50      3.40     41.60      0.00     13.55     13.06
12/06 20:00      0.00    511.88     24568    489.69         0         0     42.84    338.30      2.10     52.80      0.00     13.55     13.05
12/06 21:00      0.00    511.86     24522    489.83         0         0     41.40    342.60      2.60     55.95      0.00     13.57     13.03
12/06 22:00      0.00    511.87     24545    489.82       412         0     38.10    345.10      0.10     63.08      0.00     13.60     13.08
12/06 23:00      0.00    511.87     24545    489.81       412         0     34.25    108.50      0.00     77.58      0.00     13.57     13.06